Time;durP1;ratioP1;P1;durP2;ratioP2;P2;SDS_P1;SDS_P2;PMS_P1;PMS_P2;Temp;Humidity;BMP_temperature;BMP_pressure;BME280_temperature;BME280_humidity;BME280_pressure;Samples;Min_cycle;Max_cycle;Signal;HPM_P1;HPM_P2
2023/06/23 00:00:48;;;;;;;9.77;3.25;;;;;;;21.58;100.00;97927.75;2593673;28;20563;-84
2023/06/23 00:02:24;;;;;;;9.18;2.95;;;;;;;21.61;100.00;97931.97;2591751;28;20513;-83
2023/06/23 00:03:40;;;;;;;7.10;3.40;;;;;;;21.64;100.00;97935.25;2593990;28;20632;-83
2023/06/23 00:04:56;;;;;;;8.10;2.95;;;;;;;21.54;100.00;97934.28;2593881;28;20112;-82
2023/06/23 00:06:13;;;;;;;10.95;3.17;;;;;;;21.67;100.00;97934.19;2593274;28;20046;-83
2023/06/23 00:07:28;;;;;;;7.75;3.38;;;;;;;21.46;100.00;97932.25;2595500;28;20061;-83
2023/06/23 00:08:47;;;;;;;7.38;3.45;;;;;;;21.39;100.00;97928.41;2593650;28;20519;-84
2023/06/23 00:10:05;;;;;;;7.47;3.55;;;;;;;21.55;100.00;97912.88;2593596;28;20136;-84
2023/06/23 00:11:21;;;;;;;8.27;3.25;;;;;;;21.59;100.00;97898.31;2593504;28;20045;-83
2023/06/23 00:12:41;;;;;;;10.57;3.60;;;;;;;21.52;100.00;97902.47;2592005;28;20042;-83
2023/06/23 00:13:56;;;;;;;12.73;3.60;;;;;;;21.62;100.00;97899.91;2592796;28;20177;-84
2023/06/23 00:15:14;;;;;;;15.43;3.85;;;;;;;21.58;100.00;97911.75;2588871;28;20057;-83
2023/06/23 00:16:30;;;;;;;8.50;3.40;;;;;;;21.51;100.00;97908.78;2593581;28;20409;-84
2023/06/23 00:17:47;;;;;;;7.63;3.33;;;;;;;21.49;100.00;97913.34;2595435;28;20073;-83
2023/06/23 00:19:03;;;;;;;9.27;3.40;;;;;;;21.51;100.00;97899.94;2593474;28;20315;-85
2023/06/23 00:20:19;;;;;;;5.43;2.90;;;;;;;21.48;100.00;97911.66;2593814;28;20077;-85
2023/06/23 00:21:34;;;;;;;9.85;3.78;;;;;;;21.44;100.00;97903.09;2595034;28;20049;-84
2023/06/23 00:22:50;;;;;;;6.88;3.20;;;;;;;21.45;100.00;97903.94;2588666;28;20050;-84
2023/06/23 00:24:06;;;;;;;8.32;3.53;;;;;;;21.40;100.00;97914.97;2593570;28;20389;-83
2023/06/23 00:25:23;;;;;;;9.20;3.53;;;;;;;21.38;100.00;97916.06;2592752;28;20054;-84
2023/06/23 00:26:38;;;;;;;9.40;3.58;;;;;;;21.50;100.00;97928.38;2595293;28;20049;-84
2023/06/23 00:27:54;;;;;;;8.23;3.35;;;;;;;21.47;100.00;97925.13;2592776;28;20511;-84
2023/06/23 00:29:10;;;;;;;6.43;3.45;;;;;;;21.41;100.00;97932.63;2594009;28;20072;-85
2023/06/23 00:30:26;;;;;;;9.05;3.22;;;;;;;21.19;100.00;97935.34;2585465;28;20056;-84
2023/06/23 00:31:42;;;;;;;7.80;2.90;;;;;;;21.26;100.00;97947.19;2591580;28;20049;-84
2023/06/23 00:32:58;;;;;;;7.65;2.97;;;;;;;21.30;100.00;97952.16;2593737;28;20129;-86
2023/06/23 00:34:14;;;;;;;7.50;3.30;;;;;;;21.10;100.00;97955.56;2594246;28;20050;-84
2023/06/23 00:35:29;;;;;;;9.90;3.50;;;;;;;20.91;100.00;97954.34;2592214;28;20466;-84
2023/06/23 00:36:45;;;;;;;6.80;3.75;;;;;;;21.14;100.00;97962.31;2593769;28;20049;-84
2023/06/23 00:38:03;;;;;;;9.25;3.85;;;;;;;21.27;100.00;97959.53;2591221;28;20394;-84
2023/06/23 00:39:19;;;;;;;6.68;3.28;;;;;;;21.12;100.00;97956.28;2593394;28;20052;-85
2023/06/23 00:40:34;;;;;;;8.63;3.42;;;;;;;21.19;100.00;97953.97;2593808;28;20516;-84
2023/06/23 00:41:50;;;;;;;10.55;3.42;;;;;;;21.17;100.00;97954.94;2592329;28;20060;-83
2023/06/23 00:43:06;;;;;;;7.68;3.25;;;;;;;21.21;100.00;97952.03;2594916;28;21006;-84
2023/06/23 00:44:21;;;;;;;9.05;3.65;;;;;;;21.24;100.00;97957.09;2595417;28;20425;-86
2023/06/23 00:45:38;;;;;;;6.25;2.42;;;;;;;21.16;100.00;97960.38;2595376;28;20076;-84
2023/06/23 00:46:54;;;;;;;9.55;2.90;;;;;;;21.33;100.00;97974.16;2596339;28;20061;-84
2023/06/23 00:48:14;;;;;;;6.28;3.03;;;;;;;21.45;100.00;97992.69;2593950;28;20060;-84
2023/06/23 00:49:30;;;;;;;6.22;3.25;;;;;;;21.55;100.00;97995.44;2595742;28;20084;-84
2023/06/23 00:50:51;;;;;;;8.23;3.20;;;;;;;21.48;100.00;97999.56;2596478;28;20060;-85
2023/06/23 00:52:10;;;;;;;7.22;2.80;;;;;;;21.53;100.00;97984.06;2594251;28;20084;-84
2023/06/23 00:53:26;;;;;;;8.70;2.65;;;;;;;21.34;100.00;97970.53;2594844;28;20701;-84
2023/06/23 00:54:42;;;;;;;9.35;3.10;;;;;;;21.33;100.00;97958.19;2594389;28;20054;-84
2023/06/23 00:55:59;;;;;;;10.80;3.30;;;;;;;20.86;100.00;97952.03;2594842;28;20519;-84
2023/06/23 00:57:15;;;;;;;7.40;3.45;;;;;;;20.98;100.00;97968.00;2595589;28;20416;-84
2023/06/23 00:58:34;;;;;;;6.88;3.25;;;;;;;20.94;100.00;97972.72;2595733;28;20077;-85
2023/06/23 00:59:50;;;;;;;7.22;2.95;;;;;;;20.89;100.00;97966.91;2596680;28;20476;-85
2023/06/23 01:01:05;;;;;;;11.40;2.90;;;;;;;21.17;100.00;97973.59;2595800;28;20049;-84
2023/06/23 01:02:21;;;;;;;7.20;3.25;;;;;;;21.34;100.00;97979.38;2595378;28;20111;-85
2023/06/23 01:03:37;;;;;;;8.52;3.25;;;;;;;21.45;100.00;97983.84;2593886;28;20046;-85
2023/06/23 01:04:52;;;;;;;6.60;2.95;;;;;;;21.40;100.00;97988.69;2595936;28;20500;-85
2023/06/23 01:06:31;;;;;;;8.13;2.88;;;;;;;21.38;100.00;97991.47;2596179;28;20077;-85
2023/06/23 01:07:51;;;;;;;7.45;3.17;;;;;;;21.22;100.00;97993.66;2596203;28;20147;-85
2023/06/23 01:09:25;;;;;;;8.02;3.05;;;;;;;20.87;100.00;98006.09;2595817;28;20049;-85
2023/06/23 01:10:51;;;;;;;5.78;3.00;;;;;;;21.19;100.00;98002.72;2593714;28;20061;-85
2023/06/23 01:12:19;;;;;;;7.93;2.88;;;;;;;20.97;100.00;97991.13;2590680;28;20061;-85
2023/06/23 01:13:52;;;;;;;5.50;2.95;;;;;;;20.93;100.00;97970.19;2593798;28;20056;-85
2023/06/23 01:15:14;;;;;;;7.70;3.10;;;;;;;20.84;100.00;97961.13;2594910;28;20053;-84
2023/06/23 01:16:37;;;;;;;7.13;3.25;;;;;;;20.86;100.00;97972.50;2595754;28;20489;-84
2023/06/23 01:18:01;;;;;;;6.72;3.05;;;;;;;21.06;100.00;97983.38;2595323;28;20057;-84
2023/06/23 01:19:38;;;;;;;9.48;3.47;;;;;;;21.02;100.00;97986.28;2594027;28;20046;-84
2023/06/23 01:20:56;;;;;;;7.00;3.13;;;;;;;20.96;100.00;97976.13;2594489;28;20145;-84
2023/06/23 01:22:24;;;;;;;5.10;3.00;;;;;;;21.11;100.00;97975.88;2595242;28;20540;-84
2023/06/23 01:23:58;;;;;;;6.00;3.35;;;;;;;21.20;100.00;97975.13;2595120;28;20489;-84
2023/06/23 01:25:30;;;;;;;10.55;3.72;;;;;;;21.03;100.00;97979.16;2593491;28;20050;-84
2023/06/23 01:27:02;;;;;;;4.15;2.63;;;;;;;21.15;100.00;97986.16;2594544;28;20133;-86
2023/06/23 01:28:21;;;;;;;;;;;;;;;21.29;100.00;97982.41;2590606;28;20050;-84
2023/06/23 01:29:40;;;;;;;5.70;2.53;;;;;;;21.22;100.00;97983.00;2595153;28;19928;-85
2023/06/23 01:30:57;;;;;;;6.93;3.03;;;;;;;21.23;100.00;97980.25;2595908;28;20049;-84
2023/06/23 01:32:27;;;;;;;4.10;2.83;;;;;;;21.34;100.00;97983.84;2593291;28;20085;-85
2023/06/23 01:33:49;;;;;;;9.02;2.97;;;;;;;21.38;100.00;97986.13;2594319;28;20448;-85
2023/06/23 01:35:09;;;;;;;5.90;2.40;;;;;;;21.28;100.00;97993.16;2595854;28;20628;-84
2023/06/23 01:36:34;;;;;;;7.05;2.95;;;;;;;21.40;100.00;97986.03;2594589;28;20407;-86
2023/06/23 01:37:57;;;;;;;7.72;2.53;;;;;;;21.40;100.00;97986.84;2592365;28;20595;-83
2023/06/23 01:39:17;;;;;;;7.00;3.17;;;;;;;21.22;100.00;97986.50;2595129;28;20433;-83
2023/06/23 01:40:34;;;;;;;6.68;3.03;;;;;;;21.25;100.00;97978.31;2593157;28;20071;-83
2023/06/23 01:41:56;;;;;;;7.78;3.28;;;;;;;21.22;100.00;97983.84;2596089;28;20120;-83
2023/06/23 01:43:13;;;;;;;5.53;3.00;;;;;;;20.89;100.00;97972.25;2594008;28;20046;-84
2023/06/23 01:44:30;;;;;;;4.80;2.50;;;;;;;20.82;100.00;97973.69;2595013;28;20056;-83
2023/06/23 01:45:48;;;;;;;6.90;2.58;;;;;;;21.08;100.00;97973.44;2594464;28;20429;-83
2023/06/23 01:47:10;;;;;;;4.57;3.05;;;;;;;21.07;100.00;97971.75;2594112;28;20054;-83
2023/06/23 01:48:27;;;;;;;7.35;3.08;;;;;;;20.69;100.00;97971.97;2593902;28;20057;-84
2023/06/23 01:49:45;;;;;;;6.82;2.85;;;;;;;20.63;100.00;97966.28;2596176;28;20136;-83
2023/06/23 01:51:02;;;;;;;7.03;3.10;;;;;;;20.64;100.00;97962.63;2594147;28;20056;-83
2023/06/23 01:52:19;;;;;;;6.78;2.97;;;;;;;20.74;100.00;97966.25;2589597;28;20056;-83
2023/06/23 01:53:36;;;;;;;7.63;3.30;;;;;;;20.86;100.00;97973.31;2594973;28;20508;-83
2023/06/23 01:54:55;;;;;;;8.90;3.65;;;;;;;20.96;100.00;97991.22;2595919;28;20041;-83
2023/06/23 01:56:13;;;;;;;6.50;2.97;;;;;;;20.91;100.00;98004.06;2594522;28;20077;-83
2023/06/23 01:57:30;;;;;;;7.97;3.60;;;;;;;20.84;100.00;97998.38;2595554;28;20045;-84
2023/06/23 01:58:48;;;;;;;9.25;3.47;;;;;;;20.82;100.00;97995.00;2594306;28;20099;-84
2023/06/23 02:00:13;;;;;;;8.93;3.80;;;;;;;20.91;100.00;98004.06;2593817;28;20045;-84
2023/06/23 02:01:31;;;;;;;7.47;3.30;;;;;;;20.91;100.00;98014.72;2596193;28;20485;-84
2023/06/23 02:02:52;;;;;;;6.43;3.20;;;;;;;20.94;100.00;98009.13;2594680;28;20473;-84
2023/06/23 02:04:09;;;;;;;7.13;3.20;;;;;;;20.84;100.00;98007.19;2596051;28;20452;-84
2023/06/23 02:05:27;;;;;;;9.27;3.35;;;;;;;20.75;100.00;98005.22;2593956;28;20096;-85
2023/06/23 02:06:46;;;;;;;5.57;2.72;;;;;;;20.67;100.00;98004.94;2593194;28;20351;-84
2023/06/23 02:08:03;;;;;;;8.10;3.30;;;;;;;20.77;100.00;98005.09;2596473;28;20124;-84
2023/06/23 02:09:29;;;;;;;5.53;2.90;;;;;;;20.63;100.00;98000.84;2596190;28;20504;-84
2023/06/23 02:10:45;;;;;;;7.70;2.85;;;;;;;20.79;100.00;97996.03;2589435;28;20050;-84
2023/06/23 02:12:06;;;;;;;7.15;3.08;;;;;;;20.71;100.00;97996.63;2594345;28;20570;-84
2023/06/23 02:13:26;;;;;;;7.65;3.53;;;;;;;20.91;100.00;98006.72;2593375;28;20049;-84
2023/06/23 02:14:44;;;;;;;5.40;2.58;;;;;;;20.82;100.00;98005.63;2595184;28;20696;-85
2023/06/23 02:16:01;;;;;;;6.43;2.88;;;;;;;20.94;100.00;98002.00;2594461;28;20552;-84
2023/06/23 02:17:17;;;;;;;5.13;2.72;;;;;;;20.88;100.00;98000.69;2594808;28;20056;-84
2023/06/23 02:18:35;;;;;;;7.95;3.03;;;;;;;20.78;100.00;97997.00;2596052;28;20177;-85
2023/06/23 02:19:52;;;;;;;7.10;3.05;;;;;;;20.80;100.00;97997.72;2592975;28;20116;-84
2023/06/23 02:21:10;;;;;;;6.18;2.85;;;;;;;20.80;100.00;98002.19;2589449;28;20572;-85
2023/06/23 02:22:28;;;;;;;6.82;3.40;;;;;;;20.87;100.00;98009.59;2593553;28;20056;-84
2023/06/23 02:23:43;;;;;;;5.82;2.90;;;;;;;20.95;100.00;98009.00;2595729;28;20049;-84
2023/06/23 02:25:00;;;;;;;5.43;2.92;;;;;;;21.02;100.00;98002.25;2593585;28;20103;-84
2023/06/23 02:26:17;;;;;;;5.63;3.03;;;;;;;20.95;100.00;98000.19;2595094;28;20524;-84
2023/06/23 02:27:32;;;;;;;4.15;2.72;;;;;;;20.73;100.00;97997.34;2593300;28;20046;-84
2023/06/23 02:28:50;;;;;;;8.90;2.92;;;;;;;20.49;100.00;97999.22;2595582;28;20049;-84
2023/06/23 02:30:07;;;;;;;6.22;3.17;;;;;;;20.73;100.00;97994.69;2596079;28;20459;-84
2023/06/23 02:31:23;;;;;;;6.65;2.88;;;;;;;20.86;100.00;98002.59;2593668;28;20063;-84
2023/06/23 02:32:39;;;;;;;8.55;3.47;;;;;;;20.82;100.00;97995.00;2593092;28;20078;-84
2023/06/23 02:33:55;;;;;;;7.82;3.33;;;;;;;20.77;100.00;97989.97;2594787;28;20041;-85
2023/06/23 02:35:14;;;;;;;6.72;2.90;;;;;;;20.92;100.00;97992.44;2594319;28;20046;-84
2023/06/23 02:36:34;;;;;;;5.30;2.67;;;;;;;20.93;100.00;97994.16;2588851;28;20053;-85
2023/06/23 02:37:55;;;;;;;8.50;3.10;;;;;;;20.98;100.00;97990.16;2592831;28;20062;-84
2023/06/23 02:39:15;;;;;;;7.38;2.63;;;;;;;20.99;100.00;97986.53;2593370;28;20103;-84
2023/06/23 02:40:34;;;;;;;6.72;2.80;;;;;;;21.01;100.00;97981.94;2593835;28;20402;-85
2023/06/23 02:41:57;;;;;;;6.55;2.75;;;;;;;20.89;100.00;97977.56;2595974;28;20060;-85
2023/06/23 02:43:21;;;;;;;5.18;2.40;;;;;;;20.97;100.00;97988.47;2593117;28;20397;-85
2023/06/23 02:44:39;;;;;;;7.13;3.00;;;;;;;20.79;100.00;97981.88;2589664;28;20041;-85
2023/06/23 02:46:00;;;;;;;6.15;2.83;;;;;;;20.99;100.00;97983.00;2595554;28;20504;-85
2023/06/23 02:47:18;;;;;;;8.77;2.88;;;;;;;20.96;100.00;97988.56;2593240;28;20055;-84
2023/06/23 02:48:39;;;;;;;8.35;3.03;;;;;;;20.92;100.00;97987.97;2594190;28;20180;-85
2023/06/23 02:50:01;;;;;;;5.38;2.65;;;;;;;20.94;100.00;97990.50;2593605;28;20512;-85
2023/06/23 02:51:20;;;;;;;8.27;2.83;;;;;;;20.86;100.00;97988.44;2593802;28;20056;-85
2023/06/23 02:52:36;;;;;;;3.83;2.53;;;;;;;20.76;100.00;97988.28;2594400;28;20745;-84
2023/06/23 02:54:00;;;;;;;5.72;2.92;;;;;;;20.57;100.00;97986.19;2593367;28;20046;-84
2023/06/23 02:55:20;;;;;;;5.40;3.00;;;;;;;20.62;100.00;97989.34;2595655;28;20111;-85
2023/06/23 02:56:41;;;;;;;7.00;3.13;;;;;;;20.70;100.00;97997.59;2593199;28;20132;-84
2023/06/23 02:58:01;;;;;;;8.63;3.45;;;;;;;20.77;100.00;98005.09;2593282;28;20353;-84
2023/06/23 02:59:19;;;;;;;5.72;3.05;;;;;;;20.67;100.00;97996.97;2594021;28;20053;-84
2023/06/23 03:00:37;;;;;;;7.43;2.78;;;;;;;20.67;100.00;98003.13;2593465;28;20096;-84
2023/06/23 03:01:57;;;;;;;4.90;2.63;;;;;;;20.56;100.00;97997.81;2592505;28;20053;-85
2023/06/23 03:03:15;;;;;;;7.65;3.03;;;;;;;20.61;100.00;98000.94;2592519;28;20057;-84
2023/06/23 03:04:32;;;;;;;7.25;2.97;;;;;;;20.66;100.00;97996.13;2593977;28;20053;-84
2023/06/23 03:05:49;;;;;;;5.80;3.00;;;;;;;20.59;100.00;98001.06;2595845;28;20045;-85
2023/06/23 03:07:06;;;;;;;5.95;3.03;;;;;;;20.42;100.00;97996.19;2594081;28;20420;-84
2023/06/23 03:08:21;;;;;;;6.30;3.30;;;;;;;20.48;100.00;97992.22;2593854;28;20433;-85
2023/06/23 03:09:37;;;;;;;5.88;2.78;;;;;;;20.34;100.00;98002.09;2594140;28;20053;-85
2023/06/23 03:10:54;;;;;;;4.78;2.80;;;;;;;20.39;100.00;97999.91;2592488;28;20183;-85
2023/06/23 03:12:11;;;;;;;8.90;3.20;;;;;;;20.34;100.00;98001.25;2588696;28;20050;-85
2023/06/23 03:13:26;;;;;;;8.30;3.25;;;;;;;20.42;100.00;98006.81;2595560;28;20045;-85
2023/06/23 03:14:44;;;;;;;8.40;3.03;;;;;;;20.31;100.00;98002.31;2592486;28;20060;-85
2023/06/23 03:16:05;;;;;;;4.20;2.80;;;;;;;20.25;100.00;98000.97;2594615;28;20077;-85
2023/06/23 03:17:26;;;;;;;8.95;2.90;;;;;;;20.28;100.00;98011.38;2593604;28;20052;-85
2023/06/23 03:18:51;;;;;;;7.10;2.97;;;;;;;20.27;100.00;98008.84;2592078;28;20090;-85
2023/06/23 03:20:18;;;;;;;5.57;2.55;;;;;;;20.18;100.00;98015.66;2594494;28;20798;-86
2023/06/23 03:21:37;;;;;;;7.50;3.03;;;;;;;20.39;100.00;98009.72;2595708;28;20569;-85
2023/06/23 03:23:13;;;;;;;6.65;3.17;;;;;;;20.57;100.00;98003.00;2592157;28;20456;-86
2023/06/23 03:24:31;;;;;;;7.53;2.60;;;;;;;20.46;100.00;98010.94;2592455;28;20540;-85
2023/06/23 03:25:48;;;;;;;5.28;3.67;;;;;;;20.34;100.00;98006.56;2594040;28;20394;-85
2023/06/23 03:27:07;;;;;;;6.80;3.10;;;;;;;20.35;100.00;98011.75;2593185;28;20041;-85
2023/06/23 03:28:27;;;;;;;5.15;3.08;;;;;;;20.26;100.00;98010.63;2592263;28;20080;-85
2023/06/23 03:29:57;;;;;;;7.20;3.15;;;;;;;20.25;100.00;98016.06;2594300;28;20420;-85
2023/06/23 03:31:17;;;;;;;9.10;3.38;;;;;;;20.24;100.00;98015.22;2593321;28;20050;-85
2023/06/23 03:32:38;;;;;;;7.53;3.28;;;;;;;20.24;100.00;98023.19;2595329;28;20167;-85
2023/06/23 03:33:56;;;;;;;9.35;3.33;;;;;;;20.19;100.00;98022.69;2594605;28;20488;-85
2023/06/23 03:35:18;;;;;;;5.63;3.25;;;;;;;20.29;100.00;98028.19;2591529;28;20046;-86
2023/06/23 03:36:35;;;;;;;;;;;;;;;20.32;100.00;98034.13;2592601;28;20068;-85
2023/06/23 03:37:59;;;;;;;9.48;3.33;;;;;;;20.22;100.00;98033.09;2593971;28;20388;-85
2023/06/23 03:39:20;;;;;;;9.07;3.08;;;;;;;19.85;100.00;98038.44;2595077;28;20086;-85
2023/06/23 03:40:50;;;;;;;6.80;3.45;;;;;;;19.64;100.00;98041.69;2594254;28;20073;-85
2023/06/23 03:42:07;;;;;;;6.65;3.33;;;;;;;19.55;100.00;98043.16;2593992;28;20457;-85
2023/06/23 03:43:29;;;;;;;5.72;3.40;;;;;;;19.76;100.00;98043.44;2594866;28;20311;-85
2023/06/23 03:44:51;;;;;;;7.22;3.40;;;;;;;20.03;100.00;98042.41;2592072;28;20077;-86
2023/06/23 03:46:13;;;;;;;6.90;3.42;;;;;;;20.00;100.00;98047.13;2595216;28;20152;-85
2023/06/23 03:47:30;;;;;;;7.85;3.13;;;;;;;19.76;100.00;98050.56;2593447;28;20107;-85
2023/06/23 03:48:49;;;;;;;6.85;3.40;;;;;;;19.75;100.00;98048.88;2593016;28;20486;-86
2023/06/23 03:50:11;;;;;;;9.43;3.97;;;;;;;20.02;100.00;98061.97;2588664;28;20046;-87
2023/06/23 03:51:29;;;;;;;5.90;3.40;;;;;;;20.05;100.00;98058.25;2594221;28;20046;-86
2023/06/23 03:52:45;;;;;;;10.82;3.58;;;;;;;20.08;100.00;98051.88;2592766;28;20669;-85
2023/06/23 03:54:03;;;;;;;12.18;4.35;;;;;;;20.03;100.00;98057.53;2594994;28;20629;-85
2023/06/23 03:55:20;;;;;;;8.20;3.35;;;;;;;20.11;100.00;98044.50;2594082;28;20151;-85
2023/06/23 03:56:38;;;;;;;9.32;3.50;;;;;;;20.16;100.00;98046.81;2593108;28;20638;-85
2023/06/23 03:57:55;;;;;;;7.45;3.72;;;;;;;20.16;100.00;98045.03;2595253;28;20049;-85
2023/06/23 03:59:13;;;;;;;7.72;3.63;;;;;;;20.05;100.00;98055.59;2591919;28;20057;-85
2023/06/23 04:00:30;;;;;;;9.65;3.85;;;;;;;20.13;100.00;98050.59;2593947;28;20050;-85
2023/06/23 04:01:48;;;;;;;7.63;3.60;;;;;;;20.12;100.00;98048.88;2588164;28;20049;-85
2023/06/23 04:03:08;;;;;;;5.85;3.70;;;;;;;20.15;100.00;98048.66;2593438;28;20057;-84
2023/06/23 04:04:26;;;;;;;6.97;3.63;;;;;;;20.25;100.00;98054.13;2592700;28;20052;-85
2023/06/23 04:05:44;;;;;;;7.40;3.83;;;;;;;20.24;100.00;98059.56;2592316;28;20046;-85
2023/06/23 04:07:01;;;;;;;8.75;3.90;;;;;;;20.35;100.00;98058.78;2592118;28;20053;-85
2023/06/23 04:08:20;;;;;;;8.35;4.22;;;;;;;20.56;100.00;98064.28;2592304;28;20767;-85
2023/06/23 04:09:40;;;;;;;7.03;3.58;;;;;;;20.51;100.00;98067.28;2592613;28;20079;-85
2023/06/23 04:10:58;;;;;;;7.07;3.40;;;;;;;20.46;100.00;98074.75;2592463;28;20092;-85
2023/06/23 04:12:16;;;;;;;8.35;4.53;;;;;;;20.39;100.00;98076.19;2593743;28;20046;-85
2023/06/23 04:13:33;;;;;;;13.85;3.70;;;;;;;20.41;100.00;98088.41;2591837;28;20049;-84
2023/06/23 04:14:54;;;;;;;6.82;3.67;;;;;;;20.72;100.00;98086.09;2592330;28;20516;-85
2023/06/23 04:16:12;;;;;;;6.47;3.22;;;;;;;20.40;100.00;98097.34;2594405;28;20080;-84
2023/06/23 04:17:29;;;;;;;6.47;3.28;;;;;;;20.47;100.00;98095.09;2595009;28;20037;-85
2023/06/23 04:18:46;;;;;;;7.55;3.72;;;;;;;20.40;100.00;98108.00;2587979;28;20064;-84
2023/06/23 04:20:03;;;;;;;5.97;3.25;;;;;;;20.12;100.00;98098.53;2591849;28;20042;-85
2023/06/23 04:21:22;;;;;;;5.03;3.28;;;;;;;20.36;100.00;98105.66;2591874;28;20065;-84
2023/06/23 04:22:40;;;;;;;5.88;3.30;;;;;;;20.30;100.00;98112.28;2593198;28;20045;-85
2023/06/23 04:24:03;;;;;;;6.65;3.20;;;;;;;20.25;100.00;98112.59;2590315;28;20054;-84
2023/06/23 04:25:21;;;;;;;6.45;3.40;;;;;;;20.23;100.00;98116.34;2592859;28;20144;-84
2023/06/23 04:26:38;;;;;;;5.68;2.53;;;;;;;20.14;100.00;98123.16;2591479;28;20107;-85
2023/06/23 04:28:01;;;;;;;8.63;3.45;;;;;;;20.26;100.00;98124.94;2592696;28;20565;-85
2023/06/23 04:29:19;;;;;;;5.85;3.50;;;;;;;20.32;100.00;98120.97;2592251;28;20073;-85
2023/06/23 04:30:37;;;;;;;11.32;4.57;;;;;;;20.70;100.00;98119.97;2593745;28;20106;-85
2023/06/23 04:31:54;;;;;;;8.45;4.35;;;;;;;20.63;100.00;98120.53;2593832;28;20477;-85
2023/06/23 04:33:10;;;;;;;8.23;4.30;;;;;;;20.65;100.00;98122.09;2592176;28;20413;-85
2023/06/23 04:34:28;;;;;;;11.02;4.68;;;;;;;20.89;100.00;98118.59;2594848;28;20172;-86
2023/06/23 04:35:44;;;;;;;9.57;4.22;;;;;;;20.99;100.00;98124.91;2592355;28;20061;-84
2023/06/23 04:37:19;;;;;;;6.30;3.75;;;;;;;20.95;100.00;98128.75;2592737;28;20136;-84
2023/06/23 04:38:40;;;;;;;8.43;4.10;;;;;;;20.76;100.00;98129.28;2592376;28;20176;-84
2023/06/23 04:40:05;;;;;;;6.75;4.60;;;;;;;20.88;100.00;98132.84;2592392;28;20050;-85
2023/06/23 04:41:24;;;;;;;9.73;4.47;;;;;;;20.97;100.00;98132.16;2592424;28;20054;-86
2023/06/23 04:42:45;;;;;;;10.00;4.57;;;;;;;21.07;100.00;98126.13;2592797;28;20088;-85
2023/06/23 04:44:04;;;;;;;12.30;5.00;;;;;;;21.03;100.00;98123.69;2592197;28;20054;-85
2023/06/23 04:45:25;;;;;;;9.45;4.35;;;;;;;21.40;100.00;98127.16;2591796;28;20474;-85
2023/06/23 04:46:43;;;;;;;10.45;4.32;;;;;;;21.37;100.00;98122.06;2591467;28;20055;-87
2023/06/23 04:48:01;;;;;;;7.28;3.85;;;;;;;21.10;100.00;98112.59;2593387;28;20603;-86
2023/06/23 04:49:20;;;;;;;6.70;4.05;;;;;;;21.22;100.00;98118.78;2590926;28;20558;-85
2023/06/23 04:50:35;;;;;;;8.30;4.25;;;;;;;21.33;100.00;98124.13;2592765;28;20456;-86
2023/06/23 04:51:54;;;;;;;5.75;3.42;;;;;;;21.16;100.00;98120.09;2592091;28;20128;-86
2023/06/23 04:53:18;;;;;;;5.22;2.70;;;;;;;20.78;100.00;98115.84;2589413;28;20103;-86
2023/06/23 04:54:41;;;;;;;6.35;3.65;;;;;;;21.07;100.00;98124.31;2591662;28;20049;-86
2023/06/23 04:56:01;;;;;;;10.30;4.38;;;;;;;21.43;100.00;98125.09;2591691;28;20042;-85
2023/06/23 04:57:21;;;;;;;12.70;4.72;;;;;;;21.30;100.00;98138.53;2590456;28;20057;-85
2023/06/23 04:58:38;;;;;;;8.23;3.80;;;;;;;21.15;100.00;98129.88;2590572;28;20564;-85
2023/06/23 04:59:58;;;;;;;10.05;4.55;;;;;;;21.44;100.00;98128.63;2592135;28;20054;-85
2023/06/23 05:01:15;;;;;;;9.02;3.92;;;;;;;21.43;100.00;98132.25;2592659;28;20049;-85
2023/06/23 05:02:33;;;;;;;6.55;3.67;;;;;;;21.19;100.00;98135.84;2592046;28;20125;-85
2023/06/23 05:03:51;;;;;;;9.93;3.92;;;;;;;21.24;100.00;98131.03;2601830;28;20060;-84
2023/06/23 05:05:08;;;;;;;8.65;4.72;;;;;;;21.56;100.00;98130.31;2599345;28;20076;-85
2023/06/23 05:06:25;;;;;;;12.45;4.95;;;;;;;21.62;100.00;98126.31;2593308;28;20054;-85
2023/06/23 05:07:42;;;;;;;7.47;3.88;;;;;;;21.47;100.00;98127.53;2593874;28;20883;-85
2023/06/23 05:08:59;;;;;;;5.10;3.03;;;;;;;21.30;100.00;98121.69;2593035;28;20509;-85
2023/06/23 05:10:16;;;;;;;4.72;2.30;;;;;;;21.03;100.00;98120.22;2591198;28;20054;-85
2023/06/23 05:11:33;;;;;;;8.90;3.45;;;;;;;21.16;100.00;98114.78;2594025;28;20042;-85
2023/06/23 05:12:51;;;;;;;6.55;3.85;;;;;;;21.40;100.00;98117.34;2591802;28;20076;-84
2023/06/23 05:14:08;;;;;;;6.80;4.00;;;;;;;21.56;100.00;98117.00;2589849;28;20046;-83
2023/06/23 05:15:25;;;;;;;5.78;3.50;;;;;;;21.66;100.00;98119.81;2593745;28;20045;-83
2023/06/23 05:16:43;;;;;;;7.32;4.13;;;;;;;21.76;100.00;98121.75;2593112;28;20065;-84
2023/06/23 05:18:02;;;;;;;3.47;2.30;;;;;;;21.29;100.00;98120.84;2592663;28;20541;-83
2023/06/23 05:19:20;;;;;;;4.18;2.38;;;;;;;21.23;100.00;98115.16;2592697;28;20053;-84
2023/06/23 05:20:39;;;;;;;10.52;3.80;;;;;;;21.58;100.00;98120.38;2593839;28;20047;-84
2023/06/23 05:21:58;;;;;;;5.75;3.60;;;;;;;21.58;100.00;98120.38;2593582;28;20213;-84
2023/06/23 05:23:17;;;;;;;6.65;3.67;;;;;;;21.70;100.00;98115.09;2592859;28;20049;-84
2023/06/23 05:24:33;;;;;;;7.20;3.35;;;;;;;21.85;100.00;98121.88;2592201;28;20460;-83
2023/06/23 05:25:50;;;;;;;5.20;2.90;;;;;;;21.53;100.00;98111.91;2593282;28;20046;-84
2023/06/23 05:27:08;;;;;;;3.97;2.40;;;;;;;21.53;100.00;98122.56;2593986;28;20140;-84
2023/06/23 05:28:26;;;;;;;4.93;2.60;;;;;;;21.63;100.00;98121.84;2594803;28;20046;-84
2023/06/23 05:29:45;;;;;;;4.65;2.55;;;;;;;21.70;100.00;98123.91;2590810;28;20088;-85
2023/06/23 05:31:03;;;;;;;6.20;2.65;;;;;;;21.58;100.00;98120.38;2593825;28;20049;-85
2023/06/23 05:32:20;;;;;;;2.85;2.08;;;;;;;21.75;100.00;98123.56;2595136;28;20095;-85
2023/06/23 05:33:37;;;;;;;3.05;2.08;;;;;;;21.65;100.00;98126.06;2595657;28;20384;-84
2023/06/23 05:34:57;;;;;;;3.22;2.15;;;;;;;21.58;100.00;98127.50;2593567;28;20497;-84
2023/06/23 05:36:15;;;;;;;2.80;2.00;;;;;;;21.69;100.00;98132.88;2595366;28;20475;-84
2023/06/23 05:37:34;;;;;;;6.80;2.10;;;;;;;21.66;100.00;98129.63;2594960;28;20091;-84
2023/06/23 05:38:53;;;;;;;2.78;2.15;;;;;;;21.62;100.00;98125.47;2594738;28;20046;-85
2023/06/23 05:40:12;;;;;;;2.80;2.13;;;;;;;21.57;100.00;98129.34;2587792;28;20061;-84
2023/06/23 05:41:28;;;;;;;2.60;1.88;;;;;;;21.55;100.00;98125.97;2594268;28;20059;-85
2023/06/23 05:42:44;;;;;;;3.53;2.10;;;;;;;21.66;100.00;98132.31;2594089;28;20049;-86
2023/06/23 05:44:00;;;;;;;3.95;2.30;;;;;;;21.75;100.00;98144.03;2596327;28;20081;-84
2023/06/23 05:45:15;;;;;;;3.28;2.10;;;;;;;21.75;100.00;98136.06;2595813;28;20501;-85
2023/06/23 05:46:34;;;;;;;2.35;2.10;;;;;;;21.50;100.00;98130.78;2593431;28;20050;-84
2023/06/23 05:48:06;;;;;;;4.57;2.20;;;;;;;21.51;100.00;98124.53;2595661;28;20220;-85
2023/06/23 05:49:23;;;;;;;4.35;2.22;;;;;;;21.40;100.00;98125.34;2595142;28;20080;-84
2023/06/23 05:50:42;;;;;;;4.78;2.05;;;;;;;21.50;100.00;98121.97;2594441;28;20104;-83
2023/06/23 05:52:02;;;;;;;2.60;1.50;;;;;;;21.38;100.00;98127.28;2594638;28;20060;-83
2023/06/23 05:53:20;;;;;;;4.68;1.83;;;;;;;21.39;100.00;98131.63;2593370;28;20057;-84
2023/06/23 05:54:40;;;;;;;4.13;1.90;;;;;;;21.35;100.00;98132.84;2592385;28;20129;-84
2023/06/23 05:56:04;;;;;;;3.67;2.45;;;;;;;21.48;100.00;98130.06;2593592;28;20399;-84
2023/06/23 05:57:28;;;;;;;3.80;2.28;;;;;;;21.35;100.00;98135.50;2593392;28;20089;-84
2023/06/23 05:58:46;;;;;;;3.70;2.40;;;;;;;21.27;100.00;98122.78;2593517;28;20074;-84
2023/06/23 06:00:15;;;;;;;9.82;2.15;;;;;;;21.19;100.00;98132.34;2589549;28;20140;-82
2023/06/23 06:01:34;;;;;;;4.95;2.25;;;;;;;21.31;100.00;98126.91;2594487;28;20056;-84
2023/06/23 06:02:52;;;;;;;1.70;1.58;;;;;;;21.24;100.00;98128.34;2595907;28;20103;-83
2023/06/23 06:04:12;;;;;;;4.38;1.55;;;;;;;21.30;100.00;98130.53;2594450;28;20069;-83
2023/06/23 06:05:28;;;;;;;6.38;1.77;;;;;;;21.47;100.00;98125.69;2594170;28;20092;-83
2023/06/23 06:06:47;;;;;;;4.35;2.00;;;;;;;21.43;100.00;98124.25;2596039;28;20045;-84
2023/06/23 06:08:05;;;;;;;2.03;1.55;;;;;;;21.61;100.00;98126.44;2589556;28;20042;-84